Time;durP1;ratioP1;P1;durP2;ratioP2;P2;SDS_P1;SDS_P2;PMS_P1;PMS_P2;Temp;Humidity;BMP_temperature;BMP_pressure;BME280_temperature;BME280_humidity;BME280_pressure;Samples;Min_cycle;Max_cycle;Signal;HPM_P1;HPM_P2
2022/09/30 00:00:36;;;;;;;1.57;1.30;;;7.80;98.20;;;;;;4989003;28;20511;-77
2022/09/30 00:03:03;;;;;;;1.53;1.30;;;7.70;98.20;;;;;;4977579;28;20483;-77
2022/09/30 00:05:30;;;;;;;1.53;1.30;;;7.70;98.20;;;;;;4988734;28;20461;-77
2022/09/30 00:07:57;;;;;;;1.50;1.30;;;7.70;98.20;;;;;;4987699;28;20472;-77
2022/09/30 00:10:24;;;;;;;1.53;1.30;;;7.70;98.20;;;;;;4984457;28;20516;-77
2022/09/30 00:12:52;;;;;;;1.50;1.30;;;7.70;98.20;;;;;;4977088;28;20481;-77
2022/09/30 00:15:20;;;;;;;1.57;1.37;;;7.70;98.20;;;;;;4988780;28;20476;-76
2022/09/30 00:17:48;;;;;;;1.57;1.30;;;7.70;98.20;;;;;;4977070;28;20556;-76
2022/09/30 00:20:15;;;;;;;1.60;1.20;;;7.70;98.20;;;;;;4988453;28;20485;-76
2022/09/30 00:22:43;;;;;;;1.57;1.30;;;7.70;98.20;;;;;;4977106;28;20484;-76
2022/09/30 00:25:10;;;;;;;1.50;1.20;;;7.60;98.20;;;;;;4988408;28;20472;-76
2022/09/30 00:27:37;;;;;;;1.53;1.20;;;7.60;98.20;;;;;;4977157;28;20915;-76
2022/09/30 00:30:05;;;;;;;1.50;1.20;;;7.60;98.20;;;;;;4988499;28;20492;-76
2022/09/30 00:32:32;;;;;;;1.60;1.30;;;7.60;98.20;;;;;;4975936;28;20495;-76
2022/09/30 00:35:00;;;;;;;1.57;1.30;;;7.60;98.20;;;;;;4982921;28;20483;-76
2022/09/30 00:37:27;;;;;;;1.60;1.40;;;7.60;98.20;;;;;;4982232;28;20891;-76
2022/09/30 00:39:54;;;;;;;1.60;1.30;;;7.50;98.20;;;;;;4995299;28;20853;-77
2022/09/30 00:42:21;;;;;;;1.60;1.50;;;7.50;98.20;;;;;;4977322;28;20480;-76
2022/09/30 00:44:54;;;;;;;1.50;1.30;;;7.50;98.20;;;;;;4992201;28;20499;-76
2022/09/30 00:47:42;;;;;;;1.60;1.30;;;7.50;98.20;;;;;;4974432;28;20511;-76
2022/09/30 00:50:20;;;;;;;1.50;1.30;;;7.50;98.20;;;;;;4979405;28;20504;-76
2022/09/30 00:52:52;;;;;;;1.50;1.30;;;7.50;98.20;;;;;;4980509;28;20484;-76
2022/09/30 00:55:39;;;;;;;1.57;1.30;;;7.50;98.20;;;;;;4991905;28;20469;-76
2022/09/30 00:58:08;;;;;;;1.50;1.30;;;7.50;98.20;;;;;;4980006;28;20857;-76
2022/09/30 01:00:35;;;;;;;1.50;1.30;;;7.50;98.20;;;;;;4992569;28;20481;-76
2022/09/30 01:03:04;;;;;;;1.57;1.30;;;7.40;98.20;;;;;;4978375;28;20544;-76
2022/09/30 01:05:34;;;;;;;1.60;1.40;;;7.40;98.20;;;;;;4987956;28;20465;-76
2022/09/30 01:08:05;;;;;;;1.60;1.30;;;7.40;98.20;;;;;;4989291;28;20486;-76
2022/09/30 01:10:32;;;;;;;1.53;1.30;;;7.40;98.20;;;;;;4997264;28;20519;-76
2022/09/30 01:12:59;;;;;;;1.60;1.40;;;7.40;98.20;;;;;;4961469;28;20477;-78
2022/09/30 01:15:43;;;;;;;1.60;1.30;;;7.30;98.20;;;;;;5002579;28;20966;-77
2022/09/30 01:18:19;;;;;;;1.60;1.40;;;7.30;98.20;;;;;;4986598;28;20532;-76
2022/09/30 01:21:08;;;;;;;1.57;1.30;;;7.30;98.20;;;;;;4993255;28;20519;-76
2022/09/30 01:23:56;;;;;;;1.60;1.30;;;7.30;98.20;;;;;;4958792;28;20512;-76
2022/09/30 01:26:57;;;;;;;1.57;1.30;;;7.30;98.20;;;;;;4974087;28;20497;-76
2022/09/30 01:30:00;;;;;;;1.60;1.30;;;7.20;98.20;;;;;;4966076;28;20464;-76
2022/09/30 01:32:43;;;;;;;1.60;1.40;;;7.20;98.20;;;;;;4980247;28;20485;-76
2022/09/30 01:35:21;;;;;;;1.60;1.30;;;7.20;98.20;;;;;;4992238;28;20461;-76
2022/09/30 01:37:58;;;;;;;1.50;1.30;;;7.20;98.20;;;;;;4990742;28;20490;-76
2022/09/30 01:40:31;;;;;;;1.57;1.30;;;7.20;98.20;;;;;;4996576;28;20488;-75
2022/09/30 01:43:10;;;;;;;1.60;1.30;;;7.20;98.20;;;;;;4979193;28;20483;-75
2022/09/30 01:45:42;;;;;;;1.60;1.30;;;7.20;98.20;;;;;;4992181;28;20578;-76
2022/09/30 01:48:18;;;;;;;1.60;1.30;;;7.10;98.20;;;;;;4980672;28;20489;-77
2022/09/30 01:50:53;;;;;;;1.50;1.30;;;7.10;98.20;;;;;;4986034;28;20497;-77
2022/09/30 01:53:28;;;;;;;1.60;1.30;;;7.10;98.20;;;;;;4964268;28;20952;-76
2022/09/30 01:56:01;;;;;;;1.60;1.40;;;7.10;98.20;;;;;;4981106;28;20888;-76
2022/09/30 01:58:37;;;;;;;1.60;1.43;;;7.10;98.20;;;;;;4990015;28;20468;-76
2022/09/30 02:01:09;;;;;;;1.57;1.30;;;7.00;98.20;;;;;;4980638;28;20484;-76
2022/09/30 02:03:42;;;;;;;1.60;1.47;;;7.00;98.20;;;;;;4989461;28;20496;-76
2022/09/30 02:06:14;;;;;;;1.60;1.30;;;7.00;98.20;;;;;;4983428;28;20546;-76
2022/09/30 02:08:45;;;;;;;1.60;1.30;;;7.00;98.20;;;;;;4998612;28;20457;-76
2022/09/30 02:11:16;;;;;;;1.60;1.30;;;6.90;98.20;;;;;;4980266;28;20586;-76
2022/09/30 02:13:49;;;;;;;1.57;1.30;;;6.90;98.20;;;;;;4983206;28;20499;-76
2022/09/30 02:16:22;;;;;;;1.50;1.30;;;6.90;98.20;;;;;;4979942;28;20563;-76
2022/09/30 02:18:54;;;;;;;1.60;1.30;;;6.90;98.20;;;;;;4989812;28;20465;-76
2022/09/30 02:21:25;;;;;;;1.60;1.30;;;6.90;98.20;;;;;;4980088;28;20524;-76
2022/09/30 02:23:59;;;;;;;1.50;1.40;;;6.90;98.20;;;;;;4990088;28;20608;-76
2022/09/30 02:26:30;;;;;;;1.60;1.30;;;6.90;98.20;;;;;;4979480;28;21092;-76
2022/09/30 02:29:03;;;;;;;1.57;1.37;;;6.90;98.20;;;;;;4990359;28;20560;-76
2022/09/30 02:31:32;;;;;;;1.60;1.30;;;6.90;98.20;;;;;;4980093;28;20523;-76
2022/09/30 02:34:06;;;;;;;1.60;1.30;;;6.90;98.20;;;;;;4989470;28;20644;-76
2022/09/30 02:36:38;;;;;;;1.60;1.20;;;6.90;98.20;;;;;;4982689;28;20498;-76
2022/09/30 02:39:07;;;;;;;1.60;1.30;;;6.80;98.20;;;;;;5000934;28;20875;-75
2022/09/30 02:41:41;;;;;;;1.60;1.40;;;6.90;98.20;;;;;;4978688;28;20492;-77
2022/09/30 02:44:08;;;;;;;1.53;1.30;;;6.90;98.20;;;;;;4989834;28;20472;-75
2022/09/30 02:46:43;;;;;;;1.60;1.40;;;6.90;98.20;;;;;;4979750;28;20484;-75
2022/09/30 02:49:18;;;;;;;1.60;1.30;;;6.90;98.20;;;;;;4984724;28;20472;-75
2022/09/30 02:51:56;;;;;;;1.60;1.50;;;6.80;98.20;;;;;;4979740;28;21062;-76
2022/09/30 02:54:31;;;;;;;1.53;1.30;;;6.90;98.20;;;;;;4990240;28;20507;-75
2022/09/30 02:57:03;;;;;;;1.57;1.40;;;6.80;98.20;;;;;;4978722;28;20523;-75
2022/09/30 02:59:30;;;;;;;1.60;1.40;;;6.80;98.20;;;;;;4989825;28;20954;-75
2022/09/30 03:01:57;;;;;;;1.57;1.30;;;6.80;98.20;;;;;;4977409;28;20570;-76
2022/09/30 03:04:30;;;;;;;1.60;1.40;;;6.80;98.20;;;;;;4989600;28;20548;-75
2022/09/30 03:06:57;;;;;;;1.60;1.40;;;6.80;98.20;;;;;;4985783;28;20480;-75
2022/09/30 03:09:26;;;;;;;1.60;1.30;;;6.80;98.20;;;;;;4994695;28;20461;-76
2022/09/30 03:12:01;;;;;;;1.60;1.40;;;6.80;98.20;;;;;;4978363;28;20501;-76
2022/09/30 03:14:45;;;;;;;1.53;1.30;;;6.80;98.20;;;;;;4990431;28;20496;-75
2022/09/30 03:17:36;;;;;;;1.60;1.40;;;6.80;98.20;;;;;;4978202;28;20888;-75
2022/09/30 03:20:31;;;;;;;1.60;1.40;;;6.80;98.20;;;;;;4990079;28;20485;-75
2022/09/30 03:23:17;;;;;;;1.50;1.30;;;6.90;98.20;;;;;;4978183;28;21122;-75
2022/09/30 03:25:56;;;;;;;1.60;1.40;;;6.90;98.20;;;;;;4989064;28;20476;-75
2022/09/30 03:28:27;;;;;;;1.60;1.40;;;6.90;98.20;;;;;;4961150;28;20473;-75
2022/09/30 03:31:03;;;;;;;1.60;1.40;;;6.90;98.20;;;;;;4978510;28;20491;-75
2022/09/30 03:33:39;;;;;;;1.57;1.30;;;6.90;98.20;;;;;;4982738;28;20496;-74
2022/09/30 03:36:13;;;;;;;1.57;1.30;;;6.90;98.20;;;;;;4977696;28;20483;-75
2022/09/30 03:38:49;;;;;;;1.57;1.30;;;6.90;98.20;;;;;;5001079;28;20469;-75
2022/09/30 03:41:20;;;;;;;1.50;1.30;;;6.90;98.20;;;;;;4975946;28;21406;-76
2022/09/30 03:43:51;;;;;;;1.60;1.30;;;6.80;98.20;;;;;;4985998;28;20548;-76
2022/09/30 03:46:24;;;;;;;1.60;1.30;;;6.80;98.20;;;;;;4978049;28;20476;-76
2022/09/30 03:48:56;;;;;;;1.60;1.30;;;6.80;98.20;;;;;;4989259;28;20770;-76
2022/09/30 03:51:25;;;;;;;1.60;1.30;;;6.80;98.20;;;;;;4978978;28;21081;-76
2022/09/30 03:53:54;;;;;;;1.50;1.30;;;6.80;98.20;;;;;;4989143;28;20889;-77
2022/09/30 03:56:25;;;;;;;1.60;1.30;;;6.80;98.20;;;;;;4969428;28;20485;-75
2022/09/30 03:58:52;;;;;;;1.50;1.30;;;6.80;98.20;;;;;;4977851;28;20489;-76
2022/09/30 04:01:20;;;;;;;1.57;1.40;;;6.70;98.20;;;;;;4979995;28;20840;-76
2022/09/30 04:03:50;;;;;;;1.60;1.40;;;6.70;98.20;;;;;;4986792;28;20472;-76
2022/09/30 04:06:17;;;;;;;1.60;1.30;;;6.70;98.20;;;;;;4982469;28;20484;-75
2022/09/30 04:08:46;;;;;;;1.60;1.40;;;6.70;98.20;;;;;;4997671;28;20465;-74
2022/09/30 04:11:13;;;;;;;1.53;1.40;;;6.70;98.20;;;;;;4979384;28;20619;-75
2022/09/30 04:13:40;;;;;;;1.57;1.30;;;6.60;98.20;;;;;;4991013;28;20481;-75
2022/09/30 04:16:07;;;;;;;1.60;1.30;;;6.60;98.20;;;;;;4980118;28;20976;-76
2022/09/30 04:18:37;;;;;;;1.60;1.40;;;6.60;98.20;;;;;;4989673;28;20477;-74
2022/09/30 04:21:06;;;;;;;1.50;1.30;;;6.60;98.20;;;;;;4979253;28;20538;-75
2022/09/30 04:23:35;;;;;;;1.60;1.33;;;6.60;98.20;;;;;;4985234;28;20520;-75
2022/09/30 04:26:04;;;;;;;1.57;1.40;;;6.60;98.20;;;;;;4975919;28;20475;-75
2022/09/30 04:28:31;;;;;;;1.60;1.40;;;6.60;98.20;;;;;;4971302;28;20523;-74
2022/09/30 04:30:59;;;;;;;1.60;1.30;;;6.60;98.20;;;;;;4979732;28;20841;-74
2022/09/30 04:33:27;;;;;;;1.50;1.30;;;6.70;98.20;;;;;;4987467;28;20555;-76
2022/09/30 04:35:55;;;;;;;1.53;1.30;;;6.70;98.20;;;;;;4975333;28;20970;-74
2022/09/30 04:38:23;;;;;;;1.57;1.30;;;6.70;98.20;;;;;;4976750;28;20528;-75
2022/09/30 04:40:51;;;;;;;1.60;1.30;;;6.70;98.20;;;;;;4979310;28;20880;-75
2022/09/30 04:43:22;;;;;;;1.50;1.30;;;6.70;98.20;;;;;;4986489;28;20461;-75
2022/09/30 04:45:51;;;;;;;1.57;1.30;;;6.70;98.20;;;;;;4981435;28;20465;-75
2022/09/30 04:48:20;;;;;;;1.53;1.30;;;6.70;98.20;;;;;;4987398;28;20460;-75
2022/09/30 04:50:47;;;;;;;1.60;1.40;;;6.70;98.20;;;;;;4989244;28;21024;-75
2022/09/30 04:53:15;;;;;;;1.57;1.30;;;6.80;98.20;;;;;;4976473;28;20543;-74
2022/09/30 04:55:42;;;;;;;1.60;1.30;;;6.80;98.20;;;;;;4987021;28;20938;-75
2022/09/30 04:58:09;;;;;;;1.60;1.30;;;6.80;98.20;;;;;;4976977;28;20539;-75
2022/09/30 05:00:38;;;;;;;1.60;1.40;;;6.80;98.20;;;;;;4988135;28;20513;-75
2022/09/30 05:03:06;;;;;;;1.53;1.40;;;6.80;98.20;;;;;;4977262;28;20547;-76
2022/09/30 05:05:34;;;;;;;1.60;1.30;;;6.80;98.20;;;;;;4996862;28;20483;-75
2022/09/30 05:08:02;;;;;;;1.60;1.40;;;6.80;98.20;;;;;;4970555;28;20482;-76
2022/09/30 05:10:29;;;;;;;1.60;1.40;;;6.80;98.20;;;;;;4995113;28;20491;-74
2022/09/30 05:12:57;;;;;;;1.57;1.30;;;6.80;98.20;;;;;;4978204;28;20572;-75
2022/09/30 05:15:24;;;;;;;1.60;1.30;;;6.80;98.20;;;;;;4988839;28;20465;-74
2022/09/30 05:17:53;;;;;;;1.53;1.30;;;6.80;98.20;;;;;;4977096;28;20495;-76
2022/09/30 05:20:20;;;;;;;1.60;1.30;;;6.80;98.20;;;;;;4989203;28;20576;-75
2022/09/30 05:22:47;;;;;;;1.50;1.30;;;6.80;98.20;;;;;;4975844;28;20785;-75
2022/09/30 05:25:15;;;;;;;1.57;1.30;;;6.80;98.20;;;;;;4991701;28;20496;-74
2022/09/30 05:27:42;;;;;;;1.53;1.30;;;6.80;98.20;;;;;;4964966;28;20792;-74
2022/09/30 05:30:10;;;;;;;1.50;1.40;;;6.80;98.20;;;;;;4991847;28;20489;-75
2022/09/30 05:32:37;;;;;;;1.60;1.37;;;6.80;98.20;;;;;;4980539;28;20485;-75
2022/09/30 05:35:06;;;;;;;1.50;1.30;;;6.90;98.20;;;;;;4991707;28;20501;-75
2022/09/30 05:37:34;;;;;;;1.50;1.30;;;6.90;98.20;;;;;;4971808;28;20858;-75
2022/09/30 05:40:01;;;;;;;1.60;1.30;;;6.90;98.20;;;;;;4995038;28;20488;-73
2022/09/30 05:42:31;;;;;;;1.53;1.30;;;6.90;98.20;;;;;;4977854;28;20578;-74
2022/09/30 05:44:58;;;;;;;1.53;1.20;;;6.90;98.20;;;;;;4991652;28;20497;-74
2022/09/30 05:47:25;;;;;;;1.60;1.30;;;6.90;98.20;;;;;;4978740;28;20484;-74
2022/09/30 05:49:52;;;;;;;1.57;1.30;;;7.00;98.20;;;;;;4990051;28;20515;-75
2022/09/30 05:52:21;;;;;;;1.57;1.30;;;7.00;98.20;;;;;;4979653;28;20492;-73
2022/09/30 05:54:47;;;;;;;1.60;1.30;;;6.90;98.20;;;;;;4990530;28;20475;-74
2022/09/30 05:57:15;;;;;;;1.57;1.30;;;6.90;98.20;;;;;;4978373;28;20508;-74
2022/09/30 05:59:42;;;;;;;1.57;1.30;;;6.90;98.20;;;;;;4990618;28;20473;-74
2022/09/30 06:02:09;;;;;;;1.60;1.40;;;6.90;98.20;;;;;;4979453;28;20620;-73
2022/09/30 06:04:37;;;;;;;1.50;1.30;;;6.90;98.20;;;;;;4988779;28;20524;-73
2022/09/30 06:07:04;;;;;;;1.60;1.30;;;6.90;98.20;;;;;;4982482;28;20652;-73
2022/09/30 06:09:33;;;;;;;1.60;1.40;;;6.90;98.20;;;;;;4993026;28;20617;-73
2022/09/30 06:12:00;;;;;;;1.50;1.30;;;6.90;98.20;;;;;;4978200;28;20581;-74
2022/09/30 06:14:28;;;;;;;1.57;1.30;;;7.00;98.20;;;;;;4988532;28;20816;-74
2022/09/30 06:16:55;;;;;;;1.50;1.30;;;7.00;98.20;;;;;;4979235;28;20497;-75
2022/09/30 06:19:22;;;;;;;1.53;1.30;;;7.10;98.20;;;;;;4989714;28;20467;-73
2022/09/30 06:21:49;;;;;;;1.50;1.20;;;7.10;98.20;;;;;;4976447;28;20485;-72
2022/09/30 06:24:18;;;;;;;1.53;1.30;;;7.20;98.20;;;;;;4987026;28;20499;-73
2022/09/30 06:26:46;;;;;;;1.50;1.30;;;7.30;98.20;;;;;;4978627;28;20563;-74
2022/09/30 06:29:13;;;;;;;1.50;1.30;;;7.40;98.20;;;;;;4989428;28;20570;-74
2022/09/30 06:31:41;;;;;;;1.53;1.27;;;7.60;98.20;;;;;;4978161;28;21065;-74
2022/09/30 06:34:09;;;;;;;1.57;1.30;;;7.70;98.20;;;;;;4987867;28;20469;-74
2022/09/30 06:36:36;;;;;;;1.57;1.30;;;7.80;98.20;;;;;;4977351;28;20491;-74
2022/09/30 06:39:04;;;;;;;1.60;1.30;;;7.90;98.20;;;;;;5002082;28;21126;-74
2022/09/30 06:41:31;;;;;;;1.57;1.30;;;8.00;98.20;;;;;;4980880;28;20571;-74
2022/09/30 06:44:00;;;;;;;1.55;1.20;;;8.10;98.20;;;;;;4989305;28;20946;-74
2022/09/30 06:46:27;;;;;;;1.60;1.30;;;8.20;98.20;;;;;;4978430;28;20545;-74
2022/09/30 06:48:56;;;;;;;1.53;1.20;;;8.40;98.20;;;;;;4988729;28;20563;-74
2022/09/30 06:51:24;;;;;;;1.60;1.30;;;8.50;98.20;;;;;;4978220;28;20520;-74
2022/09/30 06:53:51;;;;;;;1.53;1.20;;;8.60;98.20;;;;;;4988677;28;20978;-74
2022/09/30 06:56:19;;;;;;;1.57;1.27;;;8.80;98.20;;;;;;4978240;28;20552;-75
2022/09/30 06:58:46;;;;;;;1.57;1.20;;;9.00;98.20;;;;;;4989115;28;20877;-74
2022/09/30 07:01:15;;;;;;;1.60;1.40;;;9.10;98.20;;;;;;4979183;28;20492;-74
2022/09/30 07:03:44;;;;;;;1.53;1.20;;;9.20;98.20;;;;;;4989391;28;20519;-75
2022/09/30 07:06:14;;;;;;;1.53;1.20;;;9.40;98.20;;;;;;4980783;28;20897;-74
2022/09/30 07:08:41;;;;;;;1.57;1.27;;;9.50;98.20;;;;;;4996224;28;20504;-74
2022/09/30 07:11:13;;;;;;;1.57;1.10;;;9.60;98.20;;;;;;4980548;28;20683;-74
2022/09/30 07:13:42;;;;;;;1.60;1.20;;;9.80;98.20;;;;;;4985875;28;20468;-74
2022/09/30 07:16:10;;;;;;;1.53;1.20;;;9.90;98.20;;;;;;4978944;28;20478;-75
2022/09/30 07:18:41;;;;;;;1.53;1.20;;;10.00;98.20;;;;;;4988259;28;20897;-75
2022/09/30 07:21:09;;;;;;;1.53;1.20;;;10.10;98.20;;;;;;4977257;28;20485;-75
2022/09/30 07:23:36;;;;;;;1.57;1.20;;;10.20;98.20;;;;;;4986693;28;20546;-74
2022/09/30 07:26:06;;;;;;;1.53;1.20;;;10.20;98.20;;;;;;4976594;28;21025;-75
2022/09/30 07:28:38;;;;;;;1.60;1.20;;;10.20;98.20;;;;;;4987854;28;20859;-75
2022/09/30 07:31:10;;;;;;;1.50;1.20;;;10.20;98.20;;;;;;4979818;28;20481;-75
2022/09/30 07:33:40;;;;;;;1.53;1.20;;;10.30;98.20;;;;;;4983418;28;20461;-75
2022/09/30 07:36:07;;;;;;;1.53;1.20;;;10.40;98.20;;;;;;4977147;28;20972;-75
2022/09/30 07:38:36;;;;;;;1.57;1.10;;;10.30;98.20;;;;;;5001766;28;20985;-75
2022/09/30 07:41:07;;;;;;;1.57;1.20;;;10.40;98.20;;;;;;4982223;28;20488;-74
2022/09/30 07:43:37;;;;;;;1.53;1.20;;;10.60;98.20;;;;;;4988372;28;20563;-74
2022/09/30 07:46:06;;;;;;;1.50;1.10;;;10.70;98.20;;;;;;4978173;28;20496;-74
2022/09/30 07:48:43;;;;;;;1.53;1.10;;;10.80;98.20;;;;;;4988079;28;20469;-74
2022/09/30 07:51:15;;;;;;;2.43;1.40;;;11.00;98.20;;;;;;4978442;28;20492;-76
2022/09/30 07:53:43;;;;;;;1.50;1.10;;;11.20;98.20;;;;;;4989394;28;20484;-76
2022/09/30 07:56:11;;;;;;;1.60;1.20;;;11.40;98.20;;;;;;4978201;28;20581;-74
2022/09/30 07:58:39;;;;;;;1.57;1.10;;;11.50;98.20;;;;;;4988299;28;20495;-74
2022/09/30 08:01:07;;;;;;;1.53;1.10;;;11.70;98.20;;;;;;4977358;28;20481;-75
2022/09/30 08:03:34;;;;;;;1.50;1.03;;;11.90;98.20;;;;;;4988020;28;20559;-75
2022/09/30 08:06:05;;;;;;;1.50;1.10;;;12.00;98.20;;;;;;4978262;28;20499;-76
2022/09/30 08:08:34;;;;;;;1.53;1.10;;;12.10;98.20;;;;;;5000934;28;20465;-75
2022/09/30 08:11:02;;;;;;;1.57;1.00;;;12.30;98.20;;;;;;4978771;28;20497;-76
2022/09/30 08:13:29;;;;;;;1.57;1.10;;;12.40;98.20;;;;;;4988948;28;20465;-75
2022/09/30 08:15:57;;;;;;;1.57;1.10;;;12.60;98.20;;;;;;4978176;28;20468;-77
2022/09/30 08:18:24;;;;;;;1.50;1.00;;;12.80;98.20;;;;;;4987685;28;20475;-76
2022/09/30 08:20:51;;;;;;;1.50;1.00;;;12.90;98.20;;;;;;4978358;28;21000;-76
2022/09/30 08:23:18;;;;;;;1.53;1.00;;;12.90;98.20;;;;;;4987111;28;20979;-77
2022/09/30 08:25:47;;;;;;;1.50;1.03;;;13.10;98.20;;;;;;4987107;28;20575;-77
2022/09/30 08:28:16;;;;;;;1.50;1.00;;;13.20;98.20;;;;;;4961096;28;20491;-79
2022/09/30 08:30:44;;;;;;;1.53;1.10;;;13.30;98.20;;;;;;4988942;28;20912;-77
2022/09/30 08:33:11;;;;;;;1.57;1.10;;;13.40;98.20;;;;;;4977454;28;20495;-77
2022/09/30 08:35:39;;;;;;;1.50;1.10;;;13.60;98.20;;;;;;4987227;28;20465;-77
2022/09/30 08:38:07;;;;;;;1.50;1.00;;;13.60;98.20;;;;;;4970395;28;20481;-76
2022/09/30 08:40:44;;;;;;;1.53;1.00;;;13.70;98.20;;;;;;4996314;28;20485;-77
2022/09/30 08:43:24;;;;;;;1.53;1.07;;;13.70;98.20;;;;;;4976700;28;20766;-76
2022/09/30 08:46:04;;;;;;;1.57;1.10;;;13.80;98.20;;;;;;4978168;28;20535;-77
2022/09/30 08:48:48;;;;;;;1.57;1.10;;;13.90;98.20;;;;;;4982913;28;20461;-79
2022/09/30 08:51:30;;;;;;;1.57;0.90;;;14.00;98.20;;;;;;4979091;28;20569;-77
2022/09/30 08:54:02;;;;;;;1.53;1.00;;;14.20;98.20;;;;;;4989402;28;20465;-78
2022/09/30 08:56:31;;;;;;;1.50;1.00;;;14.30;98.20;;;;;;4978559;28;21069;-78
2022/09/30 08:59:06;;;;;;;1.80;1.50;;;14.40;98.20;;;;;;4988424;28;20859;-80
2022/09/30 09:01:35;;;;;;;1.53;1.00;;;14.50;98.20;;;;;;4971647;28;20492;-80
2022/09/30 09:04:05;;;;;;;1.50;1.00;;;14.70;98.20;;;;;;4990944;28;20507;-78
2022/09/30 09:06:43;;;;;;;2.30;2.10;;;14.80;98.20;;;;;;4981625;28;20885;-78
2022/09/30 09:09:33;;;;;;;1.60;1.10;;;15.00;98.20;;;;;;5001088;28;20472;-77
2022/09/30 09:12:13;;;;;;;1.50;1.00;;;15.10;98.20;;;;;;4979724;28;20485;-78
2022/09/30 09:14:53;;;;;;;1.50;1.00;;;15.30;98.20;;;;;;4989274;28;20834;-78
2022/09/30 09:17:30;;;;;;;1.50;1.00;;;15.40;98.20;;;;;;4976102;28;20858;-78
2022/09/30 09:20:03;;;;;;;1.57;1.00;;;15.60;98.20;;;;;;4984046;28;20776;-76
2022/09/30 09:22:32;;;;;;;1.57;0.90;;;15.70;98.20;;;;;;4962682;28;20493;-76
2022/09/30 09:25:02;;;;;;;1.50;0.97;;;15.80;98.20;;;;;;4988601;28;20475;-76
2022/09/30 09:27:37;;;;;;;1.50;0.90;;;16.00;98.20;;;;;;4979208;28;20489;-77
2022/09/30 09:30:09;;;;;;;1.50;0.97;;;16.10;98.20;;;;;;4990503;28;20485;-78
2022/09/30 09:32:37;;;;;;;1.70;1.20;;;16.20;96.90;;;;;;4980716;28;20567;-77
2022/09/30 09:35:13;;;;;;;1.60;1.00;;;16.30;97.10;;;;;;4991665;28;20460;-78
2022/09/30 09:40:56;;;;;;;1.60;1.40;;;16.30;96.50;;;;;;4945736;28;20481;-78
2022/09/30 09:43:33;;;;;;;1.50;1.00;;;16.30;98.20;;;;;;4979767;28;20484;-77
2022/09/30 09:46:14;;;;;;;1.50;0.90;;;16.50;95.40;;;;;;4980163;28;20496;-77
2022/09/30 09:48:43;;;;;;;1.50;0.90;;;16.80;95.40;;;;;;4989711;28;20480;-78
2022/09/30 09:51:19;;;;;;;1.53;1.00;;;17.00;92.30;;;;;;4982322;28;20520;-80
2022/09/30 09:53:49;;;;;;;1.60;1.10;;;17.20;91.60;;;;;;4989244;28;20475;-78
2022/09/30 09:56:18;;;;;;;1.50;0.93;;;17.30;92.30;;;;;;4979946;28;20484;-78
2022/09/30 09:59:12;;;;;;;1.53;0.90;;;17.40;91.20;;;;;;4988675;28;20480;-79
2022/09/30 10:01:43;;;;;;;1.50;0.90;;;17.60;91.60;;;;;;4978459;28;20508;-79
2022/09/30 10:04:16;;;;;;;1.50;0.90;;;17.70;88.60;;;;;;4988560;28;20560;-78
2022/09/30 10:06:48;;;;;;;1.50;0.90;;;17.60;92.00;;;;;;4980935;28;20749;-78
2022/09/30 10:09:30;;;;;;;1.53;1.00;;;17.80;92.40;;;;;;4996726;28;21025;-79
2022/09/30 10:12:24;;;;;;;1.53;0.90;;;17.90;91.60;;;;;;4981643;28;20701;-79
2022/09/30 10:15:11;;;;;;;1.60;1.30;;;18.00;91.60;;;;;;4990937;28;20796;-80
2022/09/30 10:17:41;;;;;;;1.53;1.00;;;18.30;91.20;;;;;;4980853;28;20507;-78
2022/09/30 10:20:21;;;;;;;1.57;1.00;;;18.40;90.40;;;;;;4993424;28;20489;-79
2022/09/30 10:22:48;;;;;;;1.50;0.90;;;18.50;88.60;;;;;;4980949;28;21030;-78
2022/09/30 10:25:20;;;;;;;1.53;0.90;;;18.40;89.90;;;;;;4988754;28;20866;-78
2022/09/30 10:27:51;;;;;;;1.50;0.90;;;18.60;90.40;;;;;;4979579;28;21037;-78
2022/09/30 10:30:39;;;;;;;1.53;0.90;;;18.70;90.50;;;;;;4991430;28;20544;-79
2022/09/30 10:33:26;;;;;;;1.50;0.90;;;19.00;89.20;;;;;;4978898;28;20957;-78
2022/09/30 10:35:57;;;;;;;1.50;0.90;;;19.20;89.70;;;;;;4978585;28;20539;-78
2022/09/30 10:38:28;;;;;;;1.50;0.90;;;19.30;88.50;;;;;;4979251;28;20488;-78
2022/09/30 10:40:56;;;;;;;1.50;0.90;;;19.40;88.80;;;;;;4982792;28;20932;-80
2022/09/30 10:43:27;;;;;;;1.50;0.90;;;19.50;86.90;;;;;;4989419;28;20473;-78
2022/09/30 10:45:58;;;;;;;1.50;0.90;;;19.70;88.10;;;;;;4978656;28;20529;-79
2022/09/30 10:48:30;;;;;;;1.60;1.10;;;19.80;87.40;;;;;;4987467;28;20465;-78
2022/09/30 10:50:58;;;;;;;1.50;0.90;;;19.90;86.70;;;;;;4978219;28;20488;-79
2022/09/30 10:53:28;;;;;;;1.50;0.90;;;20.10;87.10;;;;;;4988952;28;20560;-80
2022/09/30 10:55:57;;;;;;;2.53;2.23;;;20.20;86.40;;;;;;4979036;28;20528;-79
2022/09/30 10:58:35;;;;;;;1.50;0.90;;;20.00;86.20;;;;;;4989452;28;20950;-79
2022/09/30 11:01:12;;;;;;;1.50;0.90;;;20.10;86.10;;;;;;4977753;28;20539;-79
2022/09/30 11:03:49;;;;;;;1.50;0.90;;;20.20;84.80;;;;;;4986772;28;20989;-78
2022/09/30 11:06:18;;;;;;;1.50;0.93;;;20.40;85.30;;;;;;4978817;28;21016;-80
2022/09/30 11:08:51;;;;;;;1.50;0.90;;;20.50;85.30;;;;;;4991440;28;20469;-78
2022/09/30 11:11:22;;;;;;;1.50;0.90;;;20.60;85.40;;;;;;4979276;28;20493;-78
2022/09/30 11:13:55;;;;;;;1.50;0.90;;;20.80;84.10;;;;;;4988227;28;20476;-78
2022/09/30 11:16:31;;;;;;;1.50;0.90;;;20.90;85.10;;;;;;4976328;28;21006;-78
2022/09/30 11:19:09;;;;;;;1.50;0.90;;;20.80;84.90;;;;;;4986253;28;20965;-79
2022/09/30 11:21:42;;;;;;;1.53;1.00;;;20.80;82.50;;;;;;4977481;28;21140;-79
2022/09/30 11:24:21;;;;;;;1.50;1.00;;;20.70;82.40;;;;;;4992234;28;20519;-79
2022/09/30 11:27:01;;;;;;;1.50;0.90;;;20.40;83.20;;;;;;4976872;28;21016;-79
2022/09/30 11:29:44;;;;;;;1.50;0.90;;;20.00;85.30;;;;;;4991882;28;20524;-77
2022/09/30 11:32:34;;;;;;;1.50;0.90;;;19.90;87.00;;;;;;4980696;28;20505;-78
2022/09/30 11:35:13;;;;;;;1.50;0.90;;;19.90;87.30;;;;;;4988880;28;21102;-77
2022/09/30 11:37:58;;;;;;;1.50;0.90;;;19.70;87.20;;;;;;4964379;28;20485;-78
2022/09/30 11:40:34;;;;;;;1.50;0.90;;;19.40;88.00;;;;;;4991333;28;20476;-76
2022/09/30 11:43:11;;;;;;;1.50;0.90;;;19.30;87.50;;;;;;4960745;28;20485;-78
2022/09/30 11:45:55;;;;;;;1.50;0.90;;;19.40;87.40;;;;;;4989927;28;20469;-78
2022/09/30 11:48:40;;;;;;;1.50;0.90;;;19.50;86.40;;;;;;4962375;28;20485;-77
2022/09/30 11:51:19;;;;;;;1.50;0.90;;;19.60;86.20;;;;;;4976376;28;20486;-78
2022/09/30 11:54:00;;;;;;;1.50;0.90;;;19.60;83.60;;;;;;4985977;28;20469;-78
2022/09/30 11:56:47;;;;;;;1.50;1.00;;;19.50;85.00;;;;;;4976896;28;20484;-78
2022/09/30 11:59:19;;;;;;;1.50;1.00;;;19.20;84.90;;;;;;4988334;28;20465;-78
2022/09/30 12:01:49;;;;;;;1.50;0.90;;;19.00;86.10;;;;;;4976774;28;20500;-78
2022/09/30 12:04:22;;;;;;;1.50;0.90;;;18.80;85.80;;;;;;4988550;28;21236;-78
2022/09/30 12:06:56;;;;;;;1.50;0.90;;;18.60;86.60;;;;;;4967141;28;20486;-78
2022/09/30 12:09:27;;;;;;;1.50;0.90;;;18.40;87.10;;;;;;4984507;28;20555;-78
2022/09/30 12:12:00;;;;;;;1.50;0.90;;;18.30;88.60;;;;;;4982420;28;20487;-78
2022/09/30 12:14:34;;;;;;;1.50;0.90;;;18.10;87.80;;;;;;4989026;28;20467;-78
2022/09/30 12:17:06;;;;;;;1.50;0.90;;;18.00;88.00;;;;;;4979478;28;20855;-78
2022/09/30 12:19:38;;;;;;;1.50;0.90;;;18.10;87.60;;;;;;4988806;28;20962;-78
2022/09/30 12:22:13;;;;;;;1.50;0.90;;;18.30;89.00;;;;;;4982670;28;21135;-78
2022/09/30 12:24:43;;;;;;;1.50;0.90;;;18.70;88.00;;;;;;4987579;28;21494;-79
2022/09/30 12:27:18;;;;;;;1.50;0.90;;;19.00;86.40;;;;;;4972987;28;21032;-78
2022/09/30 12:33:14;;;;;;;1.50;0.90;;;19.40;83.10;;;;;;4976688;28;20845;-78
2022/09/30 12:36:03;;;;;;;1.50;0.90;;;19.60;84.10;;;;;;4987238;28;20471;-78
2022/09/30 12:38:50;;;;;;;1.50;0.90;;;19.90;82.00;;;;;;4969665;28;20482;-77
2022/09/30 12:41:32;;;;;;;1.50;0.97;;;20.20;84.80;;;;;;4980017;28;21083;-78
2022/09/30 12:44:54;;;;;;;1.50;0.90;;;20.20;82.50;;;;;;4989585;28;20928;-78
2022/09/30 12:47:34;;;;;;;1.50;0.90;;;20.50;83.70;;;;;;4919454;28;20527;-78
2022/09/30 12:50:06;;;;;;;1.50;0.90;;;20.70;82.20;;;;;;4990116;28;20957;-77
2022/09/30 12:52:37;;;;;;;1.50;1.00;;;20.90;79.70;;;;;;4978492;28;20911;-78
2022/09/30 12:55:20;;;;;;;1.50;0.90;;;21.10;80.00;;;;;;4994818;28;20537;-78
2022/09/30 12:57:50;;;;;;;1.50;0.90;;;21.30;80.30;;;;;;4977449;28;20496;-78
2022/09/30 13:00:18;;;;;;;1.50;0.90;;;21.10;76.80;;;;;;4991290;28;20495;-78
2022/09/30 13:02:53;;;;;;;1.50;0.90;;;21.10;77.20;;;;;;4978917;28;20493;-78
2022/09/30 13:06:05;;;;;;;1.50;0.90;;;21.20;76.70;;;;;;4990468;28;20984;-78
2022/09/30 13:08:49;;;;;;;1.50;0.90;;;21.00;77.50;;;;;;4962053;28;20475;-77
2022/09/30 13:11:41;;;;;;;1.50;0.90;;;20.90;78.30;;;;;;4978002;28;20477;-77
2022/09/30 13:14:27;;;;;;;1.60;1.30;;;21.00;80.30;;;;;;4985375;28;20456;-78
2022/09/30 13:17:35;;;;;;;1.50;0.90;;;21.10;78.40;;;;;;4977320;28;20567;-78
2022/09/30 13:20:02;;;;;;;1.50;0.90;;;21.00;78.30;;;;;;4991219;28;20579;-78
2022/09/30 13:22:59;;;;;;;1.50;0.90;;;20.90;77.20;;;;;;4977599;28;20589;-78
2022/09/30 13:25:28;;;;;;;1.50;1.00;;;20.90;76.10;;;;;;4979502;28;21142;-78
2022/09/30 13:30:49;;;;;;;1.50;0.90;;;20.90;75.70;;;;;;5146959;27;20571;-77